Terminal Aerodrome Forecast
Issued by NWS

Home | Current Version | Previous Version | Text Only | Print | Product List | Glossary On
Versions: 1 2 3 4 5 6 7 8 9 10 11 12 13 14 15 16 17 18 19
174
FTUS44 KLZK 010533
TAFLLQ
TAF
KLLQ 010533Z 0106/0206 VRB03KT 5SM BR VCSH FEW035 BKN070
     FM010900 VRB03KT 6SM BR SCT020 BKN050
      TEMPO 0109/0113 3SM BR BKN025
     FM011500 11006KT P6SM BKN025 OVC050
     FM011900 17008KT P6SM VCTS SCT020CB BKN050=

USA.gov is the U.S. government's official web portal to all federal, state and local government web resources and services.